AirNav   Free SoundLink Mini II speaker
 
 770 users online  

ND81 Grand Forks Par Site Heliport
Cavalier, North Dakota, USA

GOING TO CAVALIER?


FAA INFORMATION EFFECTIVE 26 MARCH 2020

Location

FAA Identifier: ND81
Lat/Long: 48-43-18.9780N 097-54-40.3550W
48-43.316300N 097-54.672583W
48.7219383,-97.9112097
(estimated)
Elevation: 1182 ft. / 360 m (estimated)
Variation: 07E (1990)
From city: 2 miles E of CAVALIER, ND
Time zone: UTC -5 (UTC -6 during Standard Time)
Zip code: 58220

Heliport Operations

Heliport use: Private use. Permission required prior to landing
Activation date: 10/1994
Control tower: no
ARTCC: MINNEAPOLIS CENTER
FSS: GRAND FORKS FLIGHT SERVICE STATION
Attendance: UNATNDD
Wind indicator: yes
Segmented circle: no

Heliport Communications

WX AWOS-3 at 2C8 (12 nm E): 118.275 (701-265-8050)
WX AWOS-3PT at 96D (13 nm N): 118.175 (701-549-3402)
WX AWOS-3 at D55 (19 nm W): 118.225 (701-256-2121)

Nearby radio navigation aids

VOR radial/distance  VOR name  Freq  Var
HMLr245/32.6HUMBOLDT VORTAC112.4009E

Heliport Services

Runway Information

Helipad H1

Dimensions: 80 x 80 ft. / 24 x 24 m
Surface: concrete
Traffic pattern: leftleft

Heliport Ownership and Management from official FAA records

Ownership: Privately-owned
Owner: US AFSC
830 PATROL ROAD #260
CAVALIER AFS, ND 58220-9314
Phone 701-993-3688
Manager: SCOTT HOLMQUIST
MISSION SUPPORT, 830 PATROL ROAD #260
CAVALIER AFS, ND 58220-9314
Phone 701-993-3688

Additional Remarks

A52-H1 135 FT BLDG 1 MILE; 25 FT BLDG 1/4 MILE.
FOR CD CTC MINNEAPOLIS ARTCC AT 651-463-5588.

Instrument Procedures

There are no published instrument procedures at ND81.

Some nearby airports with instrument procedures:

2C8 - Cavalier Municipal Airport (12 nm E)
96D - Walhalla Municipal Airport (13 nm N)
D55 - Robertson Field Airport (19 nm W)
KGAF - Hutson Field Airport (29 nm SE)
KPMB - Pembina Municipal Airport (30 nm NE)
 
Loc | Ops | Rwys | IFR | FBO | Links
Com | Nav | Svcs | Stats | Notes

Bismarck Aero Center
AirBoss

 
Area around ND81 (Grand Forks Par Site Heliport)
 
Road maps at: MapQuest Bing Google
 
Aerial photo
No photo
 
Sectional chart

 
Airport distance calculator
Flying to Grand Forks Par Site Heliport? Find the distance to fly.

From to ND81

Sunrise and sunset
Times for 01-Apr-2020
 Local
(UTC-5)
 Zulu
(UTC)
Morning civil twilight06:3611:36
Sunrise07:0812:08
Sunset20:0201:02
Evening civil twilight20:3401:34

Current date and time
Zulu (UTC)  01-Apr-2020 12:51:42
Local (UTC-5)  01-Apr-2020 07:51:42
 
METAR
K2C8 
12nm E 
011235Z AUTO 12005KT 10SM OVC070 02/M01 A2993 RMK AO2
K96D 
13nm N 
011235Z AUTO 12007KT 10SM OVC070 03/00 A2993 RMK AO2
KD55 
19nm W 
011235Z AUTO 12011KT 7SM -RA BKN038 OVC046 02/01 A2988 RMK AO2
TAF
KRDR 
50nm SE 
011000Z 0110/0216 14012KT 9999 BKN060 620702 510013 QNH2984INS TEMPO 0116/0121 14020G30KT SCT030 BKN060 510003 BECMG 0120/0121 14009KT 9000 -RA SCT015 BKN020 OVC050 620606 QNH2976INS BECMG 0201/0202 30009KT 8000 -RA BR SCT005 OVC015 QNH2986INS BECMG 0206/0207 31012KT 9999 NSW OVC020 620201 620707 QNH2991INS BECMG 0211/0212 32012KT 8000 -SN OVC015 620203 620707 QNH2997INS TX12/0121Z TNM02/0209Z
NOTAMs
Click for the latest NOTAMs
NOTAMs are issued by the DoD/FAA and will open in a separate window not controlled by AirNav.

 

 
 

Would you like to see your business listed on this page?

 If your business provides an interesting product or service to pilots, flight crews, aircraft, or users of the Grand Forks Par Site Heliport, you should consider listing it here.  To start the listing process, click on the button below
 
Add a business
 

Other Pages about Grand Forks Par Site Heliport

Update a link
 
Copyright © AirNav, LLC. All rights reserved. Privacy Policy  Contact